createdAt,value
2023-01-17T00:00:03.608Z,1.08
2023-01-17T00:02:34.646Z,0.75
2023-01-17T00:05:20.740Z,0.80
2023-01-17T00:08:08.483Z,0.80
2023-01-17T00:10:42.597Z,0.70
2023-01-17T00:13:11.149Z,0.85
2023-01-17T00:15:40.138Z,1.83
2023-01-17T00:18:08.769Z,0.70
2023-01-17T00:20:54.974Z,0.80
2023-01-17T00:23:55.821Z,0.80
2023-01-17T00:26:24.414Z,1.02
2023-01-17T00:28:51.841Z,0.70
2023-01-17T00:31:20.295Z,1.00
2023-01-17T00:33:47.714Z,0.90
2023-01-17T00:36:15.090Z,0.75
2023-01-17T00:38:43.840Z,0.60
2023-01-17T00:41:12.463Z,1.40
2023-01-17T00:43:58.537Z,2.10
2023-01-17T00:46:45.236Z,0.60
2023-01-17T00:49:31.663Z,0.90
2023-01-17T00:52:17.344Z,1.42
2023-01-17T00:55:05.082Z,0.60
2023-01-17T00:57:50.829Z,0.70
2023-01-17T01:00:37.135Z,0.65
2023-01-17T01:03:27.819Z,1.25
2023-01-17T01:06:14.214Z,0.60
2023-01-17T01:09:01.501Z,1.50
2023-01-17T01:11:49.341Z,1.77
2023-01-17T01:14:35.362Z,1.88
2023-01-17T01:17:21.442Z,0.90
2023-01-17T01:20:07.381Z,0.98
2023-01-17T01:22:53.507Z,0.73
2023-01-17T01:25:39.801Z,1.35
2023-01-17T01:28:31.218Z,2.05
2023-01-17T01:31:18.636Z,1.15
2023-01-17T01:33:47.327Z,1.02
2023-01-17T01:36:15.965Z,0.70
2023-01-17T01:38:44.657Z,1.83
2023-01-17T01:41:13.446Z,0.70
2023-01-17T01:43:46.744Z,0.70
2023-01-17T01:46:19.335Z,0.60
2023-01-17T01:48:53.262Z,0.70
2023-01-17T01:51:26.959Z,1.58
2023-01-17T01:54:00.856Z,0.80
2023-01-17T01:56:32.150Z,0.68
2023-01-17T01:59:05.344Z,0.80
2023-01-17T02:01:37.465Z,4.57
2023-01-17T02:04:10.132Z,1.35
2023-01-17T02:06:40.987Z,1.00
2023-01-17T02:09:12.484Z,0.70
2023-01-17T02:11:42.224Z,1.95
2023-01-17T02:14:16.537Z,1.25
2023-01-17T02:16:57.262Z,1.10
2023-01-17T02:20:09.665Z,1.98
2023-01-17T02:23:35.517Z,1.02
2023-01-17T02:26:34.567Z,0.77
2023-01-17T02:29:31.205Z,0.80
2023-01-17T02:32:08.449Z,2.15
2023-01-17T02:34:44.359Z,1.55
2023-01-17T02:37:19.815Z,1.60
2023-01-17T02:39:53.063Z,1.50
2023-01-17T02:42:26.651Z,1.23
2023-01-17T02:44:55.235Z,1.80
2023-01-17T02:47:26.867Z,0.93
2023-01-17T02:50:05.108Z,0.80
2023-01-17T02:52:57.276Z,1.95
2023-01-17T02:55:37.513Z,1.58
2023-01-17T02:58:20.443Z,0.70
2023-01-17T03:01:01.078Z,1.65
2023-01-17T03:03:35.735Z,1.02
2023-01-17T03:06:12.412Z,1.20
2023-01-17T03:08:42.713Z,1.10
2023-01-17T03:11:11.373Z,1.55
2023-01-17T03:13:41.315Z,0.85
2023-01-17T03:16:15.169Z,2.28
2023-01-17T03:18:45.251Z,1.02
2023-01-17T03:21:13.825Z,1.08
2023-01-17T03:23:42.385Z,1.52
2023-01-17T03:26:10.866Z,1.50
2023-01-17T03:28:39.423Z,4.60
2023-01-17T03:31:08.343Z,0.90
2023-01-17T03:33:36.959Z,1.42
2023-01-17T03:36:07.512Z,1.15
2023-01-17T03:38:37.412Z,1.33
2023-01-17T03:41:06.571Z,0.93
2023-01-17T03:43:35.246Z,2.08
2023-01-17T03:46:04.810Z,1.30
2023-01-17T03:48:33.722Z,2.20
2023-01-17T03:51:02.317Z,0.90
2023-01-17T03:53:32.241Z,0.80
2023-01-17T03:56:01.462Z,1.00
2023-01-17T03:58:30.039Z,1.98
2023-01-17T04:00:58.676Z,1.60
2023-01-17T04:03:27.317Z,2.03
2023-01-17T04:05:55.983Z,1.63
2023-01-17T04:08:24.663Z,1.40
2023-01-17T04:10:54.628Z,1.30
2023-01-17T04:13:23.186Z,3.95
2023-01-17T04:15:53.103Z,1.15
2023-01-17T04:18:23.187Z,1.35
2023-01-17T04:20:52.224Z,1.20
2023-01-17T04:23:20.914Z,1.45
2023-01-17T04:25:49.544Z,2.00
2023-01-17T04:28:19.497Z,3.08
2023-01-17T04:30:48.024Z,1.73
2023-01-17T04:33:16.678Z,2.58
2023-01-17T04:35:45.269Z,1.05
2023-01-17T04:38:13.815Z,2.00
2023-01-17T04:40:42.377Z,1.25
2023-01-17T04:43:10.925Z,2.08
2023-01-17T04:45:41.229Z,1.77
2023-01-17T04:48:12.593Z,1.52
2023-01-17T04:50:41.504Z,1.48
2023-01-17T04:53:10.001Z,0.82
2023-01-17T04:55:38.538Z,2.25
2023-01-17T04:58:07.063Z,3.17
2023-01-17T05:00:35.579Z,2.60
2023-01-17T05:03:05.576Z,1.30
2023-01-17T05:05:34.097Z,1.35
2023-01-17T05:08:02.658Z,1.52
2023-01-17T05:10:31.191Z,1.40
2023-01-17T05:13:01.039Z,1.40
2023-01-17T05:15:29.997Z,1.15
2023-01-17T05:17:58.620Z,1.50
2023-01-17T05:20:28.838Z,1.40
2023-01-17T05:22:58.560Z,1.00
2023-01-17T05:25:28.769Z,1.08
2023-01-17T05:27:57.287Z,1.48
2023-01-17T05:30:25.857Z,1.70
2023-01-17T05:32:56.409Z,2.60
2023-01-17T05:35:26.503Z,0.95
2023-01-17T05:37:56.831Z,1.20
2023-01-17T05:40:27.063Z,1.60
2023-01-17T05:43:00.918Z,2.55
2023-01-17T05:45:31.765Z,1.08
2023-01-17T05:48:00.569Z,1.02
2023-01-17T05:50:31.806Z,1.10
2023-01-17T05:53:03.749Z,1.60
2023-01-17T05:55:33.547Z,2.13
2023-01-17T05:58:03.053Z,1.00
2023-01-17T06:00:32.914Z,1.05
2023-01-17T06:03:02.320Z,1.15
2023-01-17T06:05:31.205Z,2.55
2023-01-17T06:08:01.221Z,2.08
2023-01-17T06:10:30.560Z,0.93
2023-01-17T06:13:03.737Z,1.95
2023-01-17T06:15:32.597Z,3.17
2023-01-17T06:18:06.425Z,1.02
2023-01-17T06:20:35.160Z,1.52
2023-01-17T06:23:06.072Z,2.15
2023-01-17T06:25:38.011Z,1.20
2023-01-17T06:28:09.477Z,0.80
2023-01-17T06:30:38.070Z,0.85
2023-01-17T06:33:06.811Z,1.20
2023-01-17T06:35:35.347Z,1.70
2023-01-17T06:38:05.846Z,1.10
2023-01-17T06:40:34.533Z,1.52
2023-01-17T06:43:03.732Z,1.77
2023-01-17T06:45:33.283Z,1.77
2023-01-17T06:48:03.984Z,1.55
2023-01-17T06:50:33.180Z,1.10
2023-01-17T06:53:07.833Z,1.42
2023-01-17T06:55:40.254Z,1.00
2023-01-17T06:58:10.679Z,1.00
2023-01-17T07:00:40.970Z,0.80
2023-01-17T07:03:20.028Z,0.80
2023-01-17T07:05:48.636Z,1.10
2023-01-17T07:08:19.377Z,0.77
2023-01-17T07:10:49.415Z,0.90
2023-01-17T07:13:18.139Z,0.82
2023-01-17T07:15:46.801Z,1.45
2023-01-17T07:18:20.564Z,0.90
2023-01-17T07:20:49.187Z,1.02
2023-01-17T07:23:20.261Z,1.45
2023-01-17T07:25:53.453Z,1.00
2023-01-17T07:28:22.186Z,0.75
2023-01-17T07:30:50.876Z,1.70
2023-01-17T07:33:19.795Z,1.00
2023-01-17T07:35:48.457Z,2.17
2023-01-17T07:38:20.032Z,1.27
2023-01-17T07:40:48.599Z,1.80
2023-01-17T07:43:17.382Z,0.80
2023-01-17T07:45:49.602Z,0.80
2023-01-17T07:48:18.756Z,0.70
2023-01-17T07:50:52.213Z,1.00
2023-01-17T07:53:22.427Z,1.23
2023-01-17T07:55:54.619Z,0.90
2023-01-17T07:58:23.689Z,1.33
2023-01-17T08:00:52.570Z,0.73
2023-01-17T08:03:21.122Z,1.10
2023-01-17T08:05:57.698Z,1.10
2023-01-17T08:08:27.687Z,0.75
2023-01-17T08:10:56.319Z,1.23
2023-01-17T08:13:25.066Z,1.45
2023-01-17T08:15:54.593Z,1.75
2023-01-17T08:18:23.171Z,1.00
2023-01-17T08:20:51.675Z,0.93
2023-01-17T08:23:20.170Z,1.20
2023-01-17T08:25:50.318Z,1.17
2023-01-17T08:28:19.829Z,1.23
2023-01-17T08:30:48.437Z,1.45
2023-01-17T08:33:17.191Z,1.15
2023-01-17T08:35:53.439Z,1.05
2023-01-17T08:38:23.827Z,1.38
2023-01-17T08:40:53.666Z,1.55
2023-01-17T08:43:22.237Z,1.95
2023-01-17T08:45:51.756Z,1.20
2023-01-17T08:48:23.875Z,0.85
2023-01-17T08:50:52.421Z,1.33
2023-01-17T08:53:24.022Z,1.00
2023-01-17T08:56:00.928Z,1.08
2023-01-17T08:58:30.915Z,1.10
2023-01-17T09:01:02.447Z,1.20
2023-01-17T09:03:31.325Z,1.20
2023-01-17T09:06:04.002Z,2.50
2023-01-17T09:08:32.463Z,2.33
2023-01-17T09:11:04.923Z,1.27
2023-01-17T09:13:33.542Z,2.10
2023-01-17T09:16:02.305Z,1.05
2023-01-17T09:18:32.010Z,1.13
2023-01-17T09:21:00.695Z,1.30
2023-01-17T09:23:31.349Z,1.10
2023-01-17T09:26:02.050Z,0.88
2023-01-17T09:28:30.604Z,1.50
2023-01-17T09:30:59.306Z,0.88
2023-01-17T09:33:27.830Z,1.45
2023-01-17T09:35:56.279Z,1.20
2023-01-17T09:38:24.821Z,1.15
2023-01-17T09:40:53.414Z,1.13
2023-01-17T09:43:27.829Z,1.00
2023-01-17T09:45:56.473Z,1.17
2023-01-17T09:48:37.333Z,1.20
2023-01-17T09:51:10.941Z,1.02
2023-01-17T09:53:41.864Z,1.30
2023-01-17T09:56:15.771Z,1.67
2023-01-17T09:58:54.020Z,1.40
2023-01-17T10:01:33.139Z,0.90
2023-01-17T10:04:18.919Z,0.60
2023-01-17T10:06:59.518Z,1.00
2023-01-17T10:09:39.718Z,1.00
2023-01-17T10:12:19.868Z,0.98
2023-01-17T10:15:07.190Z,1.13
2023-01-17T10:17:48.081Z,0.80
2023-01-17T10:20:39.449Z,1.90
2023-01-17T10:23:43.158Z,1.27
2023-01-17T10:26:15.856Z,0.90
2023-01-17T10:28:48.854Z,1.40
2023-01-17T10:31:23.876Z,3.80
2023-01-17T10:33:54.450Z,2.13
2023-01-17T10:36:25.652Z,1.40
2023-01-17T10:38:56.936Z,1.15
2023-01-17T10:41:30.357Z,1.73
2023-01-17T10:44:07.285Z,1.27
2023-01-17T10:46:41.648Z,1.35
2023-01-17T10:49:17.865Z,1.48
2023-01-17T10:52:22.243Z,1.17
2023-01-17T10:54:58.759Z,0.82
2023-01-17T10:57:29.149Z,2.15
2023-01-17T11:00:01.055Z,1.27
2023-01-17T11:02:33.575Z,1.10
2023-01-17T11:05:21.588Z,1.98
2023-01-17T11:07:59.362Z,2.10
2023-01-17T11:10:40.369Z,2.15
2023-01-17T11:13:23.670Z,1.33
2023-01-17T11:15:57.596Z,0.88
2023-01-17T11:18:30.416Z,1.38
2023-01-17T11:21:12.228Z,1.00
2023-01-17T11:23:43.176Z,1.02
2023-01-17T11:26:13.961Z,1.20
2023-01-17T11:28:42.964Z,1.20
2023-01-17T11:31:27.197Z,1.00
2023-01-17T11:34:17.312Z,0.50
2023-01-17T11:36:46.095Z,0.93
2023-01-17T11:39:27.752Z,1.65
2023-01-17T11:41:56.590Z,3.40
2023-01-17T11:44:27.923Z,1.08
2023-01-17T11:47:19.271Z,4.13
2023-01-17T11:49:50.179Z,0.90
2023-01-17T11:52:24.389Z,1.13
2023-01-17T11:54:55.347Z,0.60
2023-01-17T11:57:26.932Z,1.98
2023-01-17T12:00:04.999Z,1.35
2023-01-17T12:03:13.631Z,1.70
2023-01-17T12:05:53.570Z,1.48
2023-01-17T12:08:43.318Z,1.55
2023-01-17T12:11:17.708Z,0.95
2023-01-17T12:14:01.318Z,1.33
2023-01-17T12:16:51.276Z,0.90
2023-01-17T12:19:39.086Z,0.85
2023-01-17T12:22:29.435Z,0.95
2023-01-17T12:25:14.911Z,0.75
2023-01-17T12:27:53.081Z,1.73
2023-01-17T12:30:40.135Z,0.80
2023-01-17T12:33:21.079Z,1.00
2023-01-17T12:35:52.983Z,2.55
2023-01-17T12:38:32.934Z,3.08
2023-01-17T12:41:07.368Z,1.13
2023-01-17T12:43:40.747Z,0.93
2023-01-17T12:46:21.043Z,1.55
2023-01-17T12:48:53.650Z,2.70
2023-01-17T12:51:29.561Z,0.80
2023-01-17T12:54:07.835Z,3.10
2023-01-17T12:56:41.794Z,1.23
2023-01-17T12:59:17.672Z,2.08
2023-01-17T13:01:57.875Z,1.75
2023-01-17T13:04:30.749Z,1.98
2023-01-17T13:07:10.204Z,4.03
2023-01-17T13:09:47.268Z,1.80
2023-01-17T13:12:17.961Z,1.10
2023-01-17T13:14:47.771Z,2.05
2023-01-17T13:17:28.314Z,2.25
2023-01-17T13:20:01.016Z,1.55
2023-01-17T13:22:29.943Z,1.67
2023-01-17T13:25:13.560Z,1.30
2023-01-17T13:28:04.567Z,1.17
2023-01-17T13:31:03.426Z,2.00
2023-01-17T13:33:45.552Z,1.05
2023-01-17T13:36:36.706Z,1.65
2023-01-17T13:39:52.956Z,1.70
2023-01-17T13:42:31.426Z,1.33
2023-01-17T13:44:59.974Z,1.77
2023-01-17T13:47:42.362Z,1.38
2023-01-17T13:50:47.341Z,1.30
2023-01-17T13:53:57.847Z,3.17
2023-01-17T13:56:37.552Z,2.25
2023-01-17T13:59:29.300Z,3.88
2023-01-17T14:01:58.200Z,2.17
2023-01-17T14:04:42.174Z,1.70
2023-01-17T14:07:21.298Z,1.40
2023-01-17T14:09:51.437Z,0.98
2023-01-17T14:12:31.917Z,2.47
2023-01-17T14:15:03.750Z,0.73
2023-01-17T14:17:55.752Z,1.88
2023-01-17T14:20:42.453Z,0.60
2023-01-17T14:23:34.120Z,0.80
2023-01-17T14:26:18.873Z,1.60
2023-01-17T14:28:48.251Z,0.93
2023-01-17T14:31:19.366Z,1.10
2023-01-17T14:33:50.784Z,1.65
2023-01-17T14:36:26.966Z,4.10
2023-01-17T14:38:55.423Z,1.20
2023-01-17T14:41:26.774Z,1.30
2023-01-17T14:43:55.705Z,1.15
2023-01-17T14:46:29.399Z,1.60
2023-01-17T14:49:02.858Z,1.00
2023-01-17T14:51:35.044Z,3.92
2023-01-17T14:54:06.364Z,2.42
2023-01-17T14:56:34.758Z,0.70
2023-01-17T14:59:17.109Z,0.90
2023-01-17T15:02:06.516Z,1.02
2023-01-17T15:04:39.624Z,4.30
2023-01-17T15:07:08.748Z,0.70
2023-01-17T15:09:38.903Z,3.63
2023-01-17T15:12:10.865Z,1.15
2023-01-17T15:14:42.995Z,1.10
2023-01-17T15:17:19.448Z,1.33
2023-01-17T15:19:50.657Z,0.55
2023-01-17T15:22:20.003Z,1.13
2023-01-17T15:24:49.013Z,1.00
2023-01-17T15:27:17.919Z,0.90
2023-01-17T15:29:47.341Z,0.80
2023-01-17T15:32:20.544Z,1.05
2023-01-17T15:34:51.375Z,1.63
2023-01-17T15:37:29.641Z,2.53
2023-01-17T15:40:05.721Z,2.78
2023-01-17T15:42:37.445Z,1.23
2023-01-17T15:45:10.409Z,1.10
2023-01-17T15:47:40.526Z,0.82
2023-01-17T15:50:30.219Z,2.25
2023-01-17T15:53:00.918Z,1.02
2023-01-17T15:55:33.444Z,0.90
2023-01-17T15:58:02.577Z,0.60
2023-01-17T16:00:37.846Z,0.82
2023-01-17T16:03:23.732Z,3.05
2023-01-17T16:05:53.397Z,0.90
2023-01-17T16:08:39.667Z,1.15
2023-01-17T16:11:11.748Z,1.20
2023-01-17T16:13:42.394Z,1.10
2023-01-17T16:16:19.606Z,0.60
2023-01-17T16:18:50.922Z,0.70
2023-01-17T16:21:22.590Z,0.88
2023-01-17T16:23:51.417Z,0.80
2023-01-17T16:26:20.199Z,0.70
2023-01-17T16:28:49.047Z,1.02
2023-01-17T16:31:17.821Z,0.70
2023-01-17T16:33:46.949Z,0.80
2023-01-17T16:36:17.677Z,1.23
2023-01-17T16:38:49.615Z,0.93
2023-01-17T16:41:18.764Z,0.70
2023-01-17T16:43:48.278Z,1.55
2023-01-17T16:46:20.448Z,0.70
2023-01-17T16:48:48.988Z,1.20
2023-01-17T16:51:19.395Z,1.27
2023-01-17T16:53:48.393Z,1.20
2023-01-17T16:56:19.116Z,0.90
2023-01-17T16:58:47.621Z,0.93
2023-01-17T17:01:21.171Z,1.27
2023-01-17T17:03:50.223Z,1.20
2023-01-17T17:06:20.260Z,1.15
2023-01-17T17:08:49.043Z,0.90
2023-01-17T17:11:19.802Z,2.47
2023-01-17T17:13:49.746Z,3.05
2023-01-17T17:16:20.697Z,1.02
2023-01-17T17:18:55.915Z,1.98
2023-01-17T17:21:26.458Z,1.48
2023-01-17T17:23:58.177Z,1.70
2023-01-17T17:26:30.871Z,1.58
2023-01-17T17:28:59.596Z,2.00
2023-01-17T17:31:28.814Z,1.40
2023-01-17T17:34:00.535Z,3.08
2023-01-17T17:36:31.126Z,1.27
2023-01-17T17:39:00.050Z,0.80
2023-01-17T17:41:30.145Z,2.00
2023-01-17T17:43:59.179Z,1.90
2023-01-17T17:46:29.278Z,1.48
2023-01-17T17:48:58.866Z,0.95
2023-01-17T17:51:30.554Z,2.13
2023-01-17T17:54:01.662Z,0.98
2023-01-17T17:56:31.849Z,3.95
2023-01-17T17:59:01.577Z,3.75
2023-01-17T18:01:30.522Z,4.57
2023-01-17T18:04:03.878Z,5.60
2023-01-17T18:06:34.794Z,10.80
2023-01-17T18:09:03.511Z,5.75
2023-01-17T18:11:33.255Z,7.22
2023-01-17T18:14:04.675Z,8.10
2023-01-17T18:16:36.395Z,7.07
2023-01-17T18:19:05.765Z,4.20
2023-01-17T18:21:37.589Z,6.22
2023-01-17T18:24:08.485Z,6.05
2023-01-17T18:26:38.666Z,5.82
2023-01-17T18:29:08.660Z,5.30
2023-01-17T18:31:37.190Z,3.40
2023-01-17T18:34:07.855Z,4.78
2023-01-17T18:36:38.646Z,3.15
2023-01-17T18:39:12.976Z,4.13
2023-01-17T18:41:41.685Z,4.45
2023-01-17T18:44:12.947Z,2.38
2023-01-17T18:46:42.363Z,3.22
2023-01-17T18:49:13.193Z,3.78
2023-01-17T18:51:46.616Z,4.00
2023-01-17T18:54:15.196Z,2.95
2023-01-17T18:56:45.151Z,3.00
2023-01-17T18:59:15.415Z,4.50
2023-01-17T19:01:44.749Z,2.60
2023-01-17T19:04:15.634Z,5.32
2023-01-17T19:06:47.496Z,2.45
2023-01-17T19:09:17.040Z,4.55
2023-01-17T19:11:47.630Z,3.65
2023-01-17T19:14:16.546Z,3.20
2023-01-17T19:16:45.095Z,3.92
2023-01-17T19:19:15.784Z,5.78
2023-01-17T19:21:46.195Z,5.80
2023-01-17T19:24:14.697Z,3.78
2023-01-17T19:26:43.505Z,4.25
2023-01-17T19:29:12.224Z,3.08
2023-01-17T19:31:42.960Z,3.50
2023-01-17T19:34:14.847Z,3.85
2023-01-17T19:36:45.056Z,3.22
2023-01-17T19:39:13.511Z,3.10
2023-01-17T19:41:44.738Z,2.92
2023-01-17T19:44:15.269Z,3.70
2023-01-17T19:46:44.184Z,3.55
2023-01-17T19:49:12.742Z,3.45
2023-01-17T19:51:41.264Z,4.70
2023-01-17T19:54:11.299Z,3.25
2023-01-17T19:56:39.775Z,5.05
2023-01-17T19:59:08.325Z,3.30
2023-01-17T20:01:37.048Z,4.18
2023-01-17T20:04:06.036Z,2.95
2023-01-17T20:06:36.882Z,2.92
2023-01-17T20:09:06.901Z,3.78
2023-01-17T20:11:37.348Z,6.88
2023-01-17T20:14:06.591Z,2.95
2023-01-17T20:16:37.619Z,5.00
2023-01-17T20:19:06.561Z,3.67
2023-01-17T20:21:35.227Z,5.63
2023-01-17T20:24:04.387Z,4.78
2023-01-17T20:26:37.821Z,3.28
2023-01-17T20:29:11.534Z,3.80
2023-01-17T20:31:41.172Z,3.92
2023-01-17T20:34:12.358Z,3.53
2023-01-17T20:36:41.774Z,3.78
2023-01-17T20:39:11.131Z,5.55
2023-01-17T20:41:41.671Z,3.03
2023-01-17T20:44:16.929Z,3.80
2023-01-17T20:46:46.358Z,3.75
2023-01-17T20:49:16.373Z,3.25
2023-01-17T20:51:45.714Z,4.78
2023-01-17T20:54:16.280Z,3.65
2023-01-17T20:56:47.439Z,2.90
2023-01-17T20:59:18.936Z,3.22
2023-01-17T21:01:47.849Z,4.05
2023-01-17T21:04:18.015Z,4.25
2023-01-17T21:06:47.623Z,4.03
2023-01-17T21:09:17.310Z,4.38
2023-01-17T21:11:45.979Z,3.50
2023-01-17T21:14:16.149Z,3.17
2023-01-17T21:16:44.749Z,3.60
2023-01-17T21:19:15.808Z,4.07
2023-01-17T21:21:44.454Z,2.97
2023-01-17T21:24:18.496Z,3.65
2023-01-17T21:26:47.533Z,3.53
2023-01-17T21:29:17.387Z,3.30
2023-01-17T21:31:45.980Z,4.53
2023-01-17T21:34:14.834Z,5.32
2023-01-17T21:36:44.020Z,4.10
2023-01-17T21:39:15.803Z,5.40
2023-01-17T21:41:47.941Z,4.18
2023-01-17T21:44:20.292Z,3.35
2023-01-17T21:46:54.146Z,2.88
2023-01-17T21:49:24.553Z,3.33
2023-01-17T21:52:10.593Z,6.00
2023-01-17T21:54:56.279Z,4.45
2023-01-17T21:57:42.219Z,4.32
2023-01-17T22:00:15.535Z,2.80
2023-01-17T22:02:45.050Z,3.85
2023-01-17T22:05:14.308Z,3.55
2023-01-17T22:08:03.479Z,3.58
2023-01-17T22:10:32.546Z,4.55
2023-01-17T22:13:01.057Z,4.20
2023-01-17T22:15:30.928Z,5.07
2023-01-17T22:17:59.814Z,3.22
2023-01-17T22:20:28.453Z,3.05
2023-01-17T22:22:57.332Z,4.00
2023-01-17T22:25:26.186Z,4.20
2023-01-17T22:27:54.990Z,3.75
2023-01-17T22:30:23.845Z,4.00
2023-01-17T22:32:54.490Z,2.58
2023-01-17T22:35:23.900Z,3.30
2023-01-17T22:37:54.801Z,3.60
2023-01-17T22:40:23.692Z,3.10
2023-01-17T22:42:52.241Z,4.18
2023-01-17T22:45:20.985Z,3.15
2023-01-17T22:47:49.474Z,3.35
2023-01-17T22:50:19.561Z,3.70
2023-01-17T22:52:48.008Z,3.72
2023-01-17T22:55:16.618Z,3.78
2023-01-17T22:57:46.622Z,3.35
2023-01-17T23:00:16.523Z,3.20
2023-01-17T23:02:45.861Z,4.38
2023-01-17T23:05:15.016Z,3.67
2023-01-17T23:07:44.981Z,4.13
2023-01-17T23:10:34.956Z,3.67
2023-01-17T23:13:03.402Z,3.97
2023-01-17T23:15:49.172Z,4.40
2023-01-17T23:18:34.853Z,6.65
2023-01-17T23:21:03.449Z,5.18
2023-01-17T23:23:33.793Z,4.05
2023-01-17T23:26:02.948Z,4.53
2023-01-17T23:28:30.487Z,3.13
2023-01-17T23:31:05.048Z,2.85
2023-01-17T23:33:33.690Z,3.17
2023-01-17T23:36:02.243Z,4.53
2023-01-17T23:38:33.991Z,4.32
2023-01-17T23:41:22.298Z,6.45
2023-01-17T23:43:54.666Z,4.43
2023-01-17T23:46:23.985Z,4.65
2023-01-17T23:48:52.748Z,3.03
2023-01-17T23:51:21.318Z,7.10
2023-01-17T23:53:57.461Z,5.45
2023-01-17T23:56:26.178Z,4.38
2023-01-17T23:58:54.681Z,4.70
